createdAt,value
2022-11-26T00:01:22.005Z,57.85
2022-11-26T00:03:49.732Z,63.72
2022-11-26T00:06:31.843Z,53.67
2022-11-26T00:08:59.606Z,60.25
2022-11-26T00:11:26.258Z,57.00
2022-11-26T00:13:53.016Z,49.08
2022-11-26T00:16:20.108Z,56.05
2022-11-26T00:18:46.844Z,56.28
2022-11-26T00:21:21.862Z,54.58
2022-11-26T00:23:49.180Z,54.25
2022-11-26T00:26:21.444Z,52.55
2022-11-26T00:29:02.167Z,54.05
2022-11-26T00:31:29.355Z,48.33
2022-11-26T00:33:56.580Z,59.03
2022-11-26T00:36:30.152Z,56.78
2022-11-26T00:39:24.305Z,53.60
2022-11-26T00:41:52.601Z,53.92
2022-11-26T00:44:24.055Z,53.08
2022-11-26T00:46:51.865Z,61.92
2022-11-26T00:49:19.049Z,55.05
2022-11-26T00:51:47.473Z,58.13
2022-11-26T00:54:17.156Z,58.38
2022-11-26T00:56:44.210Z,55.75
2022-11-26T00:59:15.608Z,56.83
2022-11-26T01:01:42.182Z,52.33
2022-11-26T01:04:08.869Z,52.67
2022-11-26T01:06:44.403Z,53.55
2022-11-26T01:09:18.058Z,54.20
2022-11-26T01:11:46.465Z,46.83
2022-11-26T01:14:17.588Z,55.60
2022-11-26T01:16:46.021Z,51.67
2022-11-26T01:19:14.841Z,50.17
2022-11-26T01:21:42.057Z,48.47
2022-11-26T01:24:09.071Z,49.47
2022-11-26T01:26:41.905Z,47.92
2022-11-26T01:29:15.700Z,46.80
2022-11-26T01:31:42.370Z,50.53
2022-11-26T01:34:09.512Z,43.72
2022-11-26T01:36:39.051Z,48.58
2022-11-26T01:39:10.314Z,52.33
2022-11-26T01:42:03.388Z,41.97
2022-11-26T01:44:33.123Z,48.28
2022-11-26T01:47:00.770Z,44.90
2022-11-26T01:49:33.792Z,46.80
2022-11-26T01:52:21.691Z,51.30
2022-11-26T01:54:52.136Z,45.38
2022-11-26T01:57:23.439Z,44.97
2022-11-26T01:59:59.354Z,43.75
2022-11-26T02:02:28.751Z,44.90
2022-11-26T02:05:09.181Z,44.38
2022-11-26T02:07:36.698Z,47.28
2022-11-26T02:10:04.385Z,44.85
2022-11-26T02:12:31.040Z,45.22
2022-11-26T02:14:57.657Z,45.47
2022-11-26T02:17:32.125Z,44.45
2022-11-26T02:20:35.214Z,50.53
2022-11-26T02:23:23.167Z,45.67
2022-11-26T02:26:26.192Z,48.78
2022-11-26T02:29:10.260Z,46.60
2022-11-26T02:31:54.868Z,46.40
2022-11-26T02:34:49.353Z,49.47
2022-11-26T02:37:30.008Z,46.33
2022-11-26T02:39:57.934Z,45.70
2022-11-26T02:42:30.521Z,52.05
2022-11-26T02:45:12.965Z,52.38
2022-11-26T02:47:42.979Z,60.13
2022-11-26T02:50:16.778Z,57.42
2022-11-26T02:52:44.912Z,58.28
2022-11-26T02:55:13.927Z,59.33
2022-11-26T02:57:48.461Z,54.13
2022-11-26T03:00:16.439Z,58.50
2022-11-26T03:02:51.440Z,53.28
2022-11-26T03:05:19.036Z,59.90
2022-11-26T03:07:49.405Z,59.33
2022-11-26T03:10:17.113Z,57.20
2022-11-26T03:12:43.680Z,64.53
2022-11-26T03:15:10.923Z,68.30
2022-11-26T03:17:37.611Z,68.07
2022-11-26T03:20:04.837Z,68.75
2022-11-26T03:22:31.464Z,65.80
2022-11-26T03:24:58.055Z,69.50
2022-11-26T03:27:24.592Z,61.35
2022-11-26T03:29:51.192Z,61.80
2022-11-26T03:32:17.841Z,74.65
2022-11-26T03:34:44.434Z,69.20
2022-11-26T03:37:11.053Z,65.03
2022-11-26T03:39:37.729Z,67.45
2022-11-26T03:42:04.398Z,63.28
2022-11-26T03:44:31.072Z,65.55
2022-11-26T03:46:57.781Z,64.95
2022-11-26T03:49:24.420Z,62.40
2022-11-26T03:51:50.995Z,63.00
2022-11-26T03:54:17.770Z,64.13
2022-11-26T03:56:44.374Z,64.70
2022-11-26T03:59:11.528Z,65.88
2022-11-26T04:01:38.199Z,69.68
2022-11-26T04:04:05.061Z,60.83
2022-11-26T04:06:31.841Z,64.82
2022-11-26T04:08:58.464Z,65.03
2022-11-26T04:11:25.204Z,68.18
2022-11-26T04:13:51.786Z,66.85
2022-11-26T04:16:18.559Z,70.43
2022-11-26T04:18:45.171Z,67.85
2022-11-26T04:21:11.756Z,65.63
2022-11-26T04:23:38.423Z,68.53
2022-11-26T04:26:05.389Z,73.35
2022-11-26T04:28:32.283Z,72.68
2022-11-26T04:30:59.093Z,60.65
2022-11-26T04:33:28.747Z,63.63
2022-11-26T04:35:55.642Z,64.57
2022-11-26T04:38:25.752Z,62.97
2022-11-26T04:40:52.761Z,69.07
2022-11-26T04:43:19.407Z,59.50
2022-11-26T04:45:46.073Z,55.63
2022-11-26T04:48:12.672Z,53.03
2022-11-26T04:50:39.216Z,50.95
2022-11-26T04:53:05.825Z,46.90
2022-11-26T04:55:32.414Z,44.50
2022-11-26T04:57:59.431Z,53.15
2022-11-26T05:00:26.373Z,46.88
2022-11-26T05:02:53.093Z,46.25
2022-11-26T05:05:19.819Z,52.05
2022-11-26T05:07:46.576Z,54.65
2022-11-26T05:10:13.681Z,50.70
2022-11-26T05:12:40.248Z,50.08
2022-11-26T05:15:07.316Z,48.72
2022-11-26T05:17:34.024Z,49.83
2022-11-26T05:20:00.588Z,46.65
2022-11-26T05:22:27.333Z,44.97
2022-11-26T05:24:53.964Z,50.42
2022-11-26T05:27:20.707Z,45.97
2022-11-26T05:29:47.276Z,49.45
2022-11-26T05:32:13.903Z,56.88
2022-11-26T05:34:41.974Z,44.17
2022-11-26T05:37:08.867Z,46.90
2022-11-26T05:39:35.560Z,49.28
2022-11-26T05:42:07.661Z,37.28
2022-11-26T05:44:37.069Z,49.83
2022-11-26T05:47:04.081Z,40.38
2022-11-26T05:49:30.653Z,49.05
2022-11-26T05:51:57.300Z,55.60
2022-11-26T05:54:23.861Z,39.90
2022-11-26T05:56:54.158Z,51.63
2022-11-26T05:59:23.930Z,49.20
2022-11-26T06:01:50.579Z,50.30
2022-11-26T06:04:17.175Z,58.75
2022-11-26T06:06:43.755Z,49.53
2022-11-26T06:09:10.343Z,50.33
2022-11-26T06:11:38.129Z,55.67
2022-11-26T06:14:04.733Z,47.40
2022-11-26T06:16:31.655Z,53.00
2022-11-26T06:18:59.295Z,58.83
2022-11-26T06:21:25.848Z,60.38
2022-11-26T06:23:58.929Z,61.53
2022-11-26T06:26:26.260Z,55.00
2022-11-26T06:28:55.403Z,61.78
2022-11-26T06:31:22.103Z,61.63
2022-11-26T06:33:52.737Z,60.22
2022-11-26T06:36:19.324Z,55.75
2022-11-26T06:38:45.893Z,62.03
2022-11-26T06:41:12.504Z,64.60
2022-11-26T06:43:39.098Z,61.65
2022-11-26T06:46:08.932Z,56.10
2022-11-26T06:48:37.117Z,54.92
2022-11-26T06:51:07.831Z,62.65
2022-11-26T06:53:34.985Z,52.92
2022-11-26T06:56:07.621Z,62.75
2022-11-26T06:58:34.501Z,64.57
2022-11-26T07:01:01.104Z,56.72
2022-11-26T07:03:33.092Z,57.50
2022-11-26T07:06:00.139Z,57.67
2022-11-26T07:08:26.711Z,50.38
2022-11-26T07:10:53.270Z,58.40
2022-11-26T07:13:21.541Z,60.30
2022-11-26T07:15:48.163Z,53.10
2022-11-26T07:18:14.776Z,55.65
2022-11-26T07:20:41.571Z,53.28
2022-11-26T07:23:08.150Z,56.25
2022-11-26T07:25:34.685Z,54.75
2022-11-26T07:28:01.260Z,55.83
2022-11-26T07:30:27.861Z,52.45
2022-11-26T07:32:54.504Z,53.85
2022-11-26T07:35:21.109Z,47.80
2022-11-26T07:37:47.776Z,47.40
2022-11-26T07:40:14.434Z,45.00
2022-11-26T07:42:41.068Z,50.15
2022-11-26T07:45:08.154Z,50.15
2022-11-26T07:47:34.709Z,46.47
2022-11-26T07:50:01.318Z,41.95
2022-11-26T07:52:27.888Z,48.17
2022-11-26T07:54:54.507Z,36.20
2022-11-26T07:57:22.713Z,41.15
2022-11-26T07:59:49.527Z,37.28
2022-11-26T08:02:16.937Z,38.83
2022-11-26T08:04:44.761Z,37.65
2022-11-26T08:07:12.623Z,39.25
2022-11-26T08:09:41.335Z,38.20
2022-11-26T08:12:07.996Z,36.05
2022-11-26T08:14:34.707Z,30.73
2022-11-26T08:17:01.329Z,34.08
2022-11-26T08:19:27.959Z,34.88
2022-11-26T08:21:54.784Z,29.05
2022-11-26T08:24:21.461Z,23.95
2022-11-26T08:26:48.131Z,33.03
2022-11-26T08:29:15.620Z,27.60
2022-11-26T08:31:46.458Z,27.60
2022-11-26T08:34:16.269Z,27.23
2022-11-26T08:36:44.133Z,37.92
2022-11-26T08:39:19.178Z,26.23
2022-11-26T08:41:51.934Z,21.33
2022-11-26T08:44:19.690Z,21.35
2022-11-26T08:46:46.258Z,20.83
2022-11-26T08:49:14.966Z,19.52
2022-11-26T08:51:42.532Z,25.23
2022-11-26T08:54:09.693Z,22.52
2022-11-26T08:56:36.438Z,21.38
2022-11-26T08:59:03.291Z,20.35
2022-11-26T09:01:32.677Z,17.65
2022-11-26T09:04:01.618Z,19.27
2022-11-26T09:06:30.822Z,19.98
2022-11-26T09:09:13.019Z,19.95
2022-11-26T09:11:57.918Z,16.85
2022-11-26T09:14:27.721Z,15.68
2022-11-26T09:16:55.627Z,21.75
2022-11-26T09:19:23.475Z,16.70
2022-11-26T09:21:50.451Z,14.75
2022-11-26T09:24:18.156Z,16.73
2022-11-26T09:26:44.946Z,13.88
2022-11-26T09:29:18.486Z,14.63
2022-11-26T09:32:22.008Z,16.42
2022-11-26T09:34:38.415Z,14.57
2022-11-26T09:37:05.389Z,17.17
2022-11-26T09:39:32.365Z,14.07
2022-11-26T09:42:08.209Z,11.45
2022-11-26T09:44:47.300Z,12.45
2022-11-26T09:47:36.323Z,10.32
2022-11-26T09:50:22.475Z,13.48
2022-11-26T09:53:23.555Z,11.70
2022-11-26T09:55:52.750Z,9.05
2022-11-26T09:58:37.081Z,10.52
2022-11-26T10:01:06.330Z,9.68
2022-11-26T10:03:35.761Z,10.82
2022-11-26T10:06:07.799Z,8.93
2022-11-26T10:08:43.279Z,11.60
2022-11-26T10:11:15.917Z,9.68
2022-11-26T10:13:54.024Z,10.13
2022-11-26T10:16:29.688Z,10.13
2022-11-26T10:19:02.845Z,13.77
2022-11-26T10:22:03.276Z,11.45
2022-11-26T10:24:33.979Z,10.50
2022-11-26T10:27:05.470Z,12.40
2022-11-26T10:29:42.438Z,14.82
2022-11-26T10:32:11.893Z,14.65
2022-11-26T10:34:46.672Z,14.85
2022-11-26T10:37:13.889Z,16.52
2022-11-26T10:39:40.954Z,11.90
2022-11-26T10:42:18.871Z,16.27
2022-11-26T10:44:49.439Z,13.73
2022-11-26T10:47:30.633Z,14.70
2022-11-26T10:50:19.099Z,16.48
2022-11-26T10:52:51.202Z,16.75
2022-11-26T10:55:39.642Z,17.90
2022-11-26T10:58:14.547Z,18.02
2022-11-26T11:00:46.016Z,20.42
2022-11-26T11:03:17.880Z,21.17
2022-11-26T11:05:45.533Z,19.70
2022-11-26T11:08:28.629Z,21.17
2022-11-26T11:10:58.213Z,19.10
2022-11-26T11:13:41.113Z,22.25
2022-11-26T11:16:09.400Z,25.88
2022-11-26T11:18:36.901Z,25.70
2022-11-26T11:21:05.572Z,22.83
2022-11-26T11:24:06.608Z,25.17
2022-11-26T11:26:26.118Z,28.90
2022-11-26T11:28:55.388Z,26.45
2022-11-26T11:31:27.312Z,28.45
2022-11-26T11:34:13.872Z,28.63
2022-11-26T11:36:40.589Z,30.55
2022-11-26T11:39:27.893Z,27.67
2022-11-26T11:41:54.796Z,29.77
2022-11-26T11:44:25.719Z,31.95
2022-11-26T11:47:20.763Z,34.25
2022-11-26T11:50:24.992Z,33.40
2022-11-26T11:53:09.885Z,33.15
2022-11-26T11:56:02.849Z,37.63
2022-11-26T11:59:00.285Z,36.72
2022-11-26T12:02:04.033Z,34.65
2022-11-26T12:04:41.118Z,40.55
2022-11-26T12:07:36.162Z,38.30
2022-11-26T12:10:16.439Z,34.35
2022-11-26T12:12:57.320Z,34.28
2022-11-26T12:15:30.073Z,34.83
2022-11-26T12:18:20.709Z,34.28
2022-11-26T12:20:53.721Z,34.67
2022-11-26T12:23:49.458Z,33.38
2022-11-26T12:26:25.589Z,30.60
2022-11-26T12:31:58.263Z,29.65
2022-11-26T12:34:31.638Z,32.35
2022-11-26T12:37:06.220Z,28.73
2022-11-26T12:39:39.924Z,31.92
2022-11-26T12:42:15.251Z,33.75
2022-11-26T12:44:44.544Z,30.40
2022-11-26T12:47:36.954Z,29.77
2022-11-26T12:50:23.460Z,35.03
2022-11-26T12:53:04.080Z,29.55
2022-11-26T12:55:38.930Z,31.35
2022-11-26T12:58:14.652Z,33.80
2022-11-26T13:00:41.816Z,29.55
2022-11-26T13:03:15.501Z,29.50
2022-11-26T13:06:09.216Z,28.38
2022-11-26T13:08:51.798Z,28.98
2022-11-26T13:11:45.817Z,31.33
2022-11-26T13:14:21.548Z,31.33
2022-11-26T13:16:52.693Z,32.83
2022-11-26T13:19:25.126Z,31.85
2022-11-26T13:22:26.981Z,28.17
2022-11-26T13:25:23.655Z,30.45
2022-11-26T13:27:57.586Z,30.17
2022-11-26T13:30:51.656Z,30.80
2022-11-26T13:33:35.951Z,29.45
2022-11-26T13:36:39.883Z,26.65
2022-11-26T13:39:34.493Z,29.27
2022-11-26T13:42:24.307Z,31.33
2022-11-26T13:45:02.691Z,32.67
2022-11-26T13:47:51.537Z,33.20
2022-11-26T13:50:31.400Z,33.65
2022-11-26T13:53:07.714Z,31.40
2022-11-26T13:55:42.629Z,37.17
2022-11-26T13:58:18.589Z,33.85
2022-11-26T14:00:45.226Z,30.95
2022-11-26T14:03:48.646Z,32.55
2022-11-26T14:06:15.747Z,33.45
2022-11-26T14:08:45.174Z,31.17
2022-11-26T14:11:16.097Z,33.13
2022-11-26T14:14:24.653Z,33.42
2022-11-26T14:17:00.526Z,34.20
2022-11-26T14:19:42.901Z,32.67
2022-11-26T14:22:21.716Z,33.38
2022-11-26T14:24:51.140Z,34.47
2022-11-26T14:27:22.133Z,41.85
2022-11-26T14:30:07.017Z,41.58
2022-11-26T14:32:39.671Z,40.25
2022-11-26T14:35:25.245Z,38.92
2022-11-26T14:37:56.113Z,45.35
2022-11-26T14:40:32.080Z,40.08
2022-11-26T14:43:19.623Z,36.95
2022-11-26T14:45:48.924Z,38.42
2022-11-26T14:48:24.632Z,40.05
2022-11-26T14:50:54.083Z,47.15
2022-11-26T14:53:23.931Z,41.53
2022-11-26T14:55:52.576Z,43.78
2022-11-26T14:58:48.221Z,38.67
2022-11-26T15:01:24.269Z,39.08
2022-11-26T15:04:03.047Z,42.20
2022-11-26T15:06:38.877Z,40.67
2022-11-26T15:09:15.835Z,36.25
2022-11-26T15:11:54.914Z,36.92
2022-11-26T15:14:38.706Z,37.38
2022-11-26T15:17:07.029Z,34.72
2022-11-26T15:19:36.617Z,39.10
2022-11-26T15:22:06.326Z,36.78
2022-11-26T15:24:33.154Z,39.40
2022-11-26T15:26:59.761Z,38.03
2022-11-26T15:29:37.366Z,37.83
2022-11-26T15:32:04.639Z,39.10
2022-11-26T15:34:33.013Z,35.15
2022-11-26T15:37:02.685Z,33.80
2022-11-26T15:39:31.551Z,36.15
2022-11-26T15:42:06.045Z,31.75
2022-11-26T15:44:42.087Z,37.00
2022-11-26T15:47:19.232Z,37.88
2022-11-26T15:49:55.066Z,39.45
2022-11-26T15:52:30.860Z,39.05
2022-11-26T15:55:12.459Z,43.15
2022-11-26T15:57:41.172Z,46.00
2022-11-26T16:00:36.016Z,37.05
2022-11-26T16:03:03.629Z,48.03
2022-11-26T16:05:35.031Z,48.92
2022-11-26T16:08:04.913Z,54.85
2022-11-26T16:10:36.993Z,48.10
2022-11-26T16:13:19.608Z,53.65
2022-11-26T16:16:17.622Z,53.08
2022-11-26T16:19:00.273Z,50.92
2022-11-26T16:21:32.954Z,54.53
2022-11-26T16:24:33.914Z,49.22
2022-11-26T16:27:05.508Z,54.97
2022-11-26T16:29:35.327Z,55.80
2022-11-26T16:32:03.413Z,55.53
2022-11-26T16:34:30.220Z,56.20
2022-11-26T16:37:18.314Z,61.55
2022-11-26T16:39:45.308Z,60.78
2022-11-26T16:42:16.563Z,55.20
2022-11-26T16:44:43.531Z,58.75
2022-11-26T16:47:16.151Z,52.38
2022-11-26T16:49:42.871Z,59.05
2022-11-26T16:52:18.934Z,59.33
2022-11-26T16:54:46.160Z,59.58
2022-11-26T16:57:19.036Z,80.15
2022-11-26T16:59:50.423Z,69.70
2022-11-26T17:02:22.476Z,63.85
2022-11-26T17:04:49.634Z,60.10
2022-11-26T17:07:26.449Z,60.75
2022-11-26T17:09:53.692Z,61.25
2022-11-26T17:12:23.493Z,75.10
2022-11-26T17:17:38.396Z,75.65
2022-11-26T17:20:22.587Z,75.85
2022-11-26T17:22:49.570Z,71.97
2022-11-26T17:25:16.418Z,78.68
2022-11-26T17:27:43.083Z,77.57
2022-11-26T17:30:19.158Z,77.57
2022-11-26T17:32:45.965Z,71.93
2022-11-26T17:35:13.093Z,72.72
2022-11-26T17:37:40.309Z,72.18
2022-11-26T17:40:19.637Z,80.72
2022-11-26T17:42:46.727Z,89.70
2022-11-26T17:45:14.370Z,90.85
2022-11-26T17:47:41.372Z,83.63
2022-11-26T17:50:23.636Z,89.22
2022-11-26T17:52:50.398Z,92.10
2022-11-26T17:55:18.329Z,93.80
2022-11-26T17:57:45.167Z,108.45
2022-11-26T18:00:15.751Z,86.45
2022-11-26T18:02:43.751Z,94.38
2022-11-26T18:05:11.981Z,105.63
2022-11-26T18:07:39.639Z,110.18
2022-11-26T18:10:14.358Z,106.07
2022-11-26T18:12:41.999Z,123.85
2022-11-26T18:15:09.099Z,121.85
2022-11-26T18:17:35.955Z,100.10
2022-11-26T18:20:02.896Z,107.15
2022-11-26T18:22:30.047Z,129.27
2022-11-26T18:24:57.690Z,99.35
2022-11-26T18:27:30.776Z,103.70
2022-11-26T18:29:57.518Z,102.70
2022-11-26T18:32:24.098Z,103.50
2022-11-26T18:34:50.938Z,112.60
2022-11-26T18:37:17.969Z,106.70
2022-11-26T18:39:44.635Z,104.43
2022-11-26T18:42:36.188Z,110.57
2022-11-26T18:45:00.032Z,101.70
2022-11-26T18:47:27.495Z,103.63
2022-11-26T18:49:54.061Z,89.10
2022-11-26T18:52:20.643Z,102.80
2022-11-26T18:54:47.311Z,102.57
2022-11-26T18:57:13.963Z,102.35
2022-11-26T18:59:40.995Z,105.05
2022-11-26T19:02:10.695Z,102.47
2022-11-26T19:04:43.313Z,106.70
2022-11-26T19:07:12.007Z,105.82
2022-11-26T19:09:39.411Z,126.53
2022-11-26T19:12:06.573Z,113.75
2022-11-26T19:14:33.238Z,110.47
2022-11-26T19:17:00.699Z,109.85
2022-11-26T19:19:28.329Z,108.05
2022-11-26T19:22:00.900Z,107.00
2022-11-26T19:24:29.228Z,133.38
2022-11-26T19:26:56.166Z,136.13
2022-11-26T19:29:22.968Z,136.68
2022-11-26T19:31:49.583Z,135.75
2022-11-26T19:34:16.537Z,120.53
2022-11-26T19:36:48.374Z,142.88
2022-11-26T19:39:16.426Z,146.93
2022-11-26T19:41:45.603Z,143.57
2022-11-26T19:44:16.430Z,144.45
2022-11-26T19:46:44.483Z,130.55
2022-11-26T19:49:13.583Z,126.78
2022-11-26T19:51:40.625Z,109.60
2022-11-26T19:54:08.504Z,118.75
2022-11-26T19:56:36.049Z,99.13
2022-11-26T19:59:03.904Z,89.88
2022-11-26T20:01:32.367Z,113.45
2022-11-26T20:04:04.601Z,103.40
2022-11-26T20:06:32.538Z,102.65
2022-11-26T20:08:59.676Z,116.00
2022-11-26T20:11:27.706Z,123.25
2022-11-26T20:13:55.446Z,125.38
2022-11-26T20:16:27.455Z,126.22
2022-11-26T20:18:54.904Z,126.18
2022-11-26T20:21:24.229Z,116.40
2022-11-26T20:23:51.907Z,112.22
2022-11-26T20:26:22.800Z,110.35
2022-11-26T20:28:51.316Z,119.47
2022-11-26T20:31:23.357Z,115.15
2022-11-26T20:33:53.056Z,125.10
2022-11-26T20:36:22.964Z,123.93
2022-11-26T20:38:54.841Z,113.55
2022-11-26T20:41:22.988Z,108.30
2022-11-26T20:43:54.932Z,121.75
2022-11-26T20:46:28.989Z,116.57
2022-11-26T20:48:56.670Z,111.68
2022-11-26T20:51:23.841Z,140.80
2022-11-26T20:53:52.091Z,131.95
2022-11-26T20:56:21.209Z,128.63
2022-11-26T20:58:49.751Z,117.88
2022-11-26T21:01:24.851Z,112.50
2022-11-26T21:03:52.797Z,117.18
2022-11-26T21:06:27.619Z,115.40
2022-11-26T21:09:01.805Z,118.60
2022-11-26T21:11:29.162Z,120.35
2022-11-26T21:13:58.117Z,121.65
2022-11-26T21:16:24.852Z,116.90
2022-11-26T21:18:55.091Z,114.50
2022-11-26T21:21:27.136Z,131.43
2022-11-26T21:23:54.567Z,118.72
2022-11-26T21:26:25.344Z,122.10
2022-11-26T21:28:57.996Z,116.25
2022-11-26T21:31:25.987Z,119.22
2022-11-26T21:34:01.244Z,114.43
2022-11-26T21:36:29.948Z,126.20
2022-11-26T21:38:56.784Z,114.63
2022-11-26T21:41:25.182Z,102.13
2022-11-26T21:43:52.187Z,136.23
2022-11-26T21:46:23.396Z,119.65
2022-11-26T21:48:55.665Z,131.50
2022-11-26T21:51:25.519Z,134.77
2022-11-26T21:53:54.734Z,121.47
2022-11-26T21:56:27.417Z,122.85
2022-11-26T21:58:57.601Z,123.22
2022-11-26T22:01:30.873Z,115.68
2022-11-26T22:04:18.553Z,109.30
2022-11-26T22:06:47.411Z,119.40
2022-11-26T22:09:16.056Z,105.55
2022-11-26T22:11:45.200Z,109.13
2022-11-26T22:14:15.631Z,99.38
2022-11-26T22:16:43.271Z,98.22
2022-11-26T22:19:10.145Z,118.20
2022-11-26T22:21:40.435Z,115.10
2022-11-26T22:24:13.282Z,99.30
2022-11-26T22:26:40.276Z,112.60
2022-11-26T22:29:07.082Z,98.35
2022-11-26T22:31:36.459Z,108.15
2022-11-26T22:34:24.767Z,102.20
2022-11-26T22:36:51.703Z,85.80
2022-11-26T22:39:19.060Z,83.55
2022-11-26T22:41:46.981Z,90.45
2022-11-26T22:44:17.987Z,102.78
2022-11-26T22:46:45.315Z,95.72
2022-11-26T22:49:14.187Z,91.47
2022-11-26T22:51:41.152Z,89.30
2022-11-26T22:54:09.929Z,91.68
2022-11-26T22:56:40.670Z,99.82
2022-11-26T22:59:10.914Z,83.45
2022-11-26T23:01:38.061Z,103.72
2022-11-26T23:04:07.128Z,105.57
2022-11-26T23:06:35.583Z,112.60
2022-11-26T23:09:05.280Z,92.53
2022-11-26T23:11:44.890Z,107.57
2022-11-26T23:14:12.321Z,89.28
2022-11-26T23:16:41.000Z,95.25
2022-11-26T23:19:08.276Z,95.55
2022-11-26T23:21:40.255Z,103.93
2022-11-26T23:24:07.968Z,100.93
2022-11-26T23:26:36.520Z,110.68
2022-11-26T23:29:05.063Z,91.93
2022-11-26T23:31:37.357Z,90.65
2022-11-26T23:34:05.054Z,102.72
2022-11-26T23:36:32.686Z,92.35
2022-11-26T23:39:02.331Z,85.50
2022-11-26T23:41:29.217Z,93.38
2022-11-26T23:43:55.988Z,87.60
2022-11-26T23:46:28.269Z,80.90
2022-11-26T23:48:55.112Z,87.20
2022-11-26T23:51:29.049Z,98.55
2022-11-26T23:53:55.748Z,83.47
2022-11-26T23:56:27.052Z,91.70
2022-11-26T23:58:56.200Z,99.60
